createdAt,value
2023-05-14T00:02:53.336Z,99677.75
2023-05-14T00:05:55.689Z,99670.22
2023-05-14T00:08:57.986Z,99665.59
2023-05-14T00:12:00.135Z,99659.59
2023-05-14T00:15:02.625Z,99658.69
2023-05-14T00:18:04.938Z,99660.13
2023-05-14T00:21:07.189Z,99659.69
2023-05-14T00:24:09.342Z,99662.34
2023-05-14T00:27:11.632Z,99655.06
2023-05-14T00:30:13.950Z,99649.91
2023-05-14T00:33:16.195Z,99649.53
2023-05-14T00:36:18.388Z,99649.81
2023-05-14T00:39:20.979Z,99650.56
2023-05-14T00:42:23.215Z,99643.81
2023-05-14T00:45:25.726Z,99642.75
2023-05-14T00:48:27.977Z,99646.78
2023-05-14T00:51:30.345Z,99650.81
2023-05-14T00:54:33.027Z,99647.34
2023-05-14T00:57:36.523Z,99650.53
2023-05-14T01:00:39.343Z,99654.38
2023-05-14T01:03:41.870Z,99649.69
2023-05-14T01:07:24.854Z,99649.66
2023-05-14T01:10:39.145Z,99650.69
2023-05-14T01:13:58.724Z,99651.72
2023-05-14T01:17:02.859Z,99647.09
2023-05-14T01:20:05.910Z,99643.41
2023-05-14T01:23:08.137Z,99636.66
2023-05-14T01:26:10.437Z,99622.44
2023-05-14T01:29:33.515Z,99627.09
2023-05-14T01:32:36.259Z,99630.13
2023-05-14T01:35:38.872Z,99618.47
2023-05-14T01:38:45.617Z,99615.00
2023-05-14T01:41:48.850Z,99610.06
2023-05-14T01:44:51.124Z,99603.75
2023-05-14T01:47:53.905Z,99600.94
2023-05-14T01:50:56.155Z,99586.41
2023-05-14T01:53:58.348Z,99590.47
2023-05-14T01:57:00.643Z,99583.78
2023-05-14T02:00:04.245Z,99584.94
2023-05-14T02:03:06.477Z,99576.00
2023-05-14T02:06:08.801Z,99577.88
2023-05-14T02:09:11.278Z,99573.38
2023-05-14T02:12:13.469Z,99558.56
2023-05-14T02:15:15.657Z,99565.78
2023-05-14T02:18:17.907Z,99556.16
2023-05-14T02:21:20.086Z,99548.00
2023-05-14T02:24:22.560Z,99548.16
2023-05-14T02:27:25.001Z,99541.66
2023-05-14T02:30:27.197Z,99541.66
2023-05-14T02:33:29.464Z,99537.72
2023-05-14T02:36:31.874Z,99538.16
2023-05-14T02:39:34.068Z,99542.81
2023-05-14T02:42:36.264Z,99537.63
2023-05-14T02:45:38.484Z,99538.06
2023-05-14T02:48:41.045Z,99536.41
2023-05-14T02:51:43.242Z,99531.31
2023-05-14T02:54:45.536Z,99536.41
2023-05-14T02:57:47.854Z,99535.75
2023-05-14T03:00:50.134Z,99530.09
2023-05-14T03:03:52.864Z,99525.47
2023-05-14T03:06:55.038Z,99522.66
2023-05-14T03:09:57.221Z,99523.88
2023-05-14T03:12:59.426Z,99517.97
2023-05-14T03:16:01.699Z,99518.97
2023-05-14T03:19:04.033Z,99512.03
2023-05-14T03:22:06.392Z,99508.41
2023-05-14T03:25:08.963Z,99510.41
2023-05-14T03:28:11.121Z,99518.59
2023-05-14T03:31:13.346Z,99507.94
2023-05-14T03:34:15.578Z,99513.37
2023-05-14T03:37:17.779Z,99509.00
2023-05-14T03:40:21.420Z,99519.69
2023-05-14T03:43:24.028Z,99500.34
2023-05-14T03:46:26.202Z,99510.78
2023-05-14T03:49:28.387Z,99518.38
2023-05-14T03:52:30.737Z,99509.56
2023-05-14T03:55:32.912Z,99519.59
2023-05-14T03:58:35.120Z,99527.31
2023-05-14T04:01:37.352Z,99535.41
2023-05-14T04:04:40.214Z,99525.00
2023-05-14T04:07:42.435Z,99530.66
2023-05-14T04:10:44.617Z,99513.87
2023-05-14T04:13:46.824Z,99518.25
2023-05-14T04:16:49.088Z,99512.94
2023-05-14T04:19:51.403Z,99518.91
2023-05-14T04:22:54.181Z,99525.44
2023-05-14T04:25:56.404Z,99525.84
2023-05-14T04:29:02.804Z,99524.22
2023-05-14T04:32:05.643Z,99518.88
2023-05-14T04:35:10.069Z,99517.41
2023-05-14T04:38:14.125Z,99503.94
2023-05-14T04:41:16.332Z,99512.56
2023-05-14T04:44:18.515Z,99508.69
2023-05-14T04:47:21.218Z,99515.63
2023-05-14T04:50:23.727Z,99504.19
2023-05-14T04:53:26.154Z,99508.31
2023-05-14T04:56:28.304Z,99505.59
2023-05-14T04:59:31.259Z,99507.44
2023-05-14T05:02:34.811Z,99506.25
2023-05-14T05:05:37.117Z,99512.72
2023-05-14T05:08:39.828Z,99504.75
2023-05-14T05:11:42.226Z,99499.25
2023-05-14T05:14:47.442Z,99491.47
2023-05-14T05:17:49.690Z,99499.66
2023-05-14T05:20:51.878Z,99495.97
2023-05-14T05:23:54.050Z,99500.28
2023-05-14T05:26:56.563Z,99500.34
2023-05-14T05:29:58.951Z,99490.94
2023-05-14T05:33:01.285Z,99495.22
2023-05-14T05:36:03.573Z,99505.06
2023-05-14T05:39:06.223Z,99490.31
2023-05-14T05:42:08.574Z,99505.87
2023-05-14T05:45:11.163Z,99490.94
2023-05-14T05:48:13.491Z,99508.16
2023-05-14T05:51:15.841Z,99498.72
2023-05-14T05:54:18.037Z,99504.66
2023-05-14T05:57:22.923Z,99495.84
2023-05-14T06:00:26.902Z,99484.59
2023-05-14T06:03:29.244Z,99496.69
2023-05-14T06:06:32.745Z,99492.41
2023-05-14T06:09:34.916Z,99498.16
2023-05-14T06:12:37.218Z,99494.06
2023-05-14T06:15:39.466Z,99496.72
2023-05-14T06:18:41.670Z,99502.44
2023-05-14T06:21:44.343Z,99503.06
2023-05-14T06:24:46.564Z,99508.19
2023-05-14T06:27:48.808Z,99508.78
2023-05-14T06:30:51.019Z,99502.66
2023-05-14T06:33:53.200Z,99505.50
2023-05-14T06:36:55.386Z,99512.28
2023-05-14T06:39:58.111Z,99509.44
2023-05-14T06:43:00.494Z,99512.28
2023-05-14T06:46:02.721Z,99521.28
2023-05-14T06:49:05.395Z,99519.47
2023-05-14T06:52:07.833Z,99517.00
2023-05-14T06:55:10.207Z,99506.75
2023-05-14T06:58:12.449Z,99502.25
2023-05-14T07:01:14.782Z,99492.81
2023-05-14T07:04:17.142Z,99500.22
2023-05-14T07:07:21.308Z,99495.72
2023-05-14T07:10:24.035Z,99493.25
2023-05-14T07:13:28.621Z,99481.38
2023-05-14T07:16:31.174Z,99480.16
2023-05-14T07:19:33.499Z,99479.34
2023-05-14T07:22:35.705Z,99479.94
2023-05-14T07:25:38.444Z,99466.84
2023-05-14T07:28:40.608Z,99469.91
2023-05-14T07:31:42.963Z,99463.78
2023-05-14T07:34:45.347Z,99460.06
2023-05-14T07:37:47.747Z,99460.06
2023-05-14T07:40:49.947Z,99454.34
2023-05-14T07:43:52.135Z,99452.28
2023-05-14T07:46:54.343Z,99443.91
2023-05-14T07:49:57.310Z,99441.81
2023-05-14T07:52:59.504Z,99445.63
2023-05-14T07:56:01.722Z,99454.41
2023-05-14T07:59:03.946Z,99449.34
2023-05-14T08:02:06.902Z,99454.59
2023-05-14T08:05:10.068Z,99445.28
2023-05-14T08:08:12.632Z,99445.28
2023-05-14T08:11:14.868Z,99438.41
2023-05-14T08:14:17.092Z,99432.94
2023-05-14T08:17:19.318Z,99425.31
2023-05-14T08:20:21.861Z,99419.38
2023-05-14T08:23:24.182Z,99425.25
2023-05-14T08:26:26.536Z,99409.44
2023-05-14T08:29:28.858Z,99415.97
2023-05-14T08:32:31.219Z,99409.94
2023-05-14T08:35:33.752Z,99409.97
2023-05-14T08:38:35.998Z,99410.78
2023-05-14T08:41:38.969Z,99405.84
2023-05-14T08:44:54.086Z,99406.31
2023-05-14T08:47:56.965Z,99406.69
2023-05-14T08:50:59.627Z,99403.09
2023-05-14T08:54:03.427Z,99395.38
2023-05-14T08:57:06.298Z,99394.34
2023-05-14T09:00:11.791Z,99390.87
2023-05-14T09:03:15.049Z,99377.53
2023-05-14T09:06:17.545Z,99377.84
2023-05-14T09:09:23.203Z,99374.47
2023-05-14T09:12:25.391Z,99369.31
2023-05-14T09:15:28.176Z,99379.66
2023-05-14T09:18:30.651Z,99372.62
2023-05-14T09:21:33.677Z,99372.16
2023-05-14T09:24:36.173Z,99374.22
2023-05-14T09:27:38.545Z,99368.50
2023-05-14T09:30:40.741Z,99359.25
2023-05-14T09:33:43.341Z,99357.41
2023-05-14T09:36:45.521Z,99358.84
2023-05-14T09:39:47.674Z,99353.50
2023-05-14T09:42:49.985Z,99349.62
2023-05-14T09:45:53.020Z,99348.97
2023-05-14T09:48:56.530Z,99351.34
2023-05-14T09:51:58.700Z,99354.09
2023-05-14T09:55:01.446Z,99344.59
2023-05-14T09:58:04.130Z,99353.06
2023-05-14T10:01:07.458Z,99342.22
2023-05-14T10:04:10.119Z,99335.47
2023-05-14T10:07:13.117Z,99338.69
2023-05-14T10:10:20.389Z,99335.63
2023-05-14T10:13:24.609Z,99332.84
2023-05-14T10:16:38.536Z,99330.91
2023-05-14T10:19:41.065Z,99320.22
2023-05-14T10:22:43.336Z,99314.72
2023-05-14T10:25:45.870Z,99300.22
2023-05-14T10:28:48.541Z,99285.84
2023-05-14T10:31:54.662Z,99276.13
2023-05-14T10:34:56.878Z,99261.09
2023-05-14T10:37:59.133Z,99256.59
2023-05-14T10:41:01.291Z,99236.72
2023-05-14T10:44:08.857Z,99235.09
2023-05-14T10:47:11.623Z,99257.62
2023-05-14T10:50:17.706Z,99262.37
2023-05-14T10:53:20.380Z,99270.03
2023-05-14T10:56:22.605Z,99265.16
2023-05-14T10:59:28.482Z,99266.84
2023-05-14T11:02:36.973Z,99257.72
2023-05-14T11:05:41.015Z,99249.50
2023-05-14T11:08:44.562Z,99247.09
2023-05-14T11:11:47.749Z,99248.31
2023-05-14T11:14:50.808Z,99246.97
2023-05-14T11:17:53.730Z,99259.81
2023-05-14T11:21:00.484Z,99256.81
2023-05-14T11:24:03.767Z,99247.06
2023-05-14T11:27:08.244Z,99254.97
2023-05-14T11:30:15.213Z,99248.00
2023-05-14T11:33:18.447Z,99257.44
2023-05-14T11:36:20.748Z,99245.41
2023-05-14T11:39:22.926Z,99247.37
2023-05-14T11:42:25.866Z,99230.31
2023-05-14T11:45:30.008Z,99239.00
2023-05-14T11:48:32.732Z,99238.28
2023-05-14T11:51:36.304Z,99236.28
2023-05-14T11:54:38.507Z,99221.72
2023-05-14T11:57:41.158Z,99227.44
2023-05-14T12:00:45.602Z,99226.72
2023-05-14T12:03:47.993Z,99222.09
2023-05-14T12:06:51.758Z,99222.03
2023-05-14T12:09:53.961Z,99214.94
2023-05-14T12:12:56.139Z,99215.37
2023-05-14T12:16:00.448Z,99203.78
2023-05-14T12:19:02.744Z,99205.66
2023-05-14T12:22:05.081Z,99191.72
2023-05-14T12:25:15.381Z,99184.91
2023-05-14T12:28:18.777Z,99181.09
2023-05-14T12:31:31.248Z,99175.78
2023-05-14T12:34:34.840Z,99169.84
2023-05-14T12:37:39.976Z,99164.06
2023-05-14T12:40:42.262Z,99168.16
2023-05-14T12:43:44.937Z,99166.66
2023-05-14T12:46:47.153Z,99163.34
2023-05-14T12:49:49.481Z,99153.72
2023-05-14T12:52:51.858Z,99154.87
2023-05-14T12:55:55.064Z,99154.59
2023-05-14T12:58:57.401Z,99157.69
2023-05-14T13:01:59.634Z,99152.63
2023-05-14T13:05:04.618Z,99141.38
2023-05-14T13:08:06.918Z,99133.59
2023-05-14T13:11:09.143Z,99126.44
2023-05-14T13:14:11.360Z,99117.78
2023-05-14T13:17:13.603Z,99110.88
2023-05-14T13:20:17.807Z,99111.91
2023-05-14T13:23:20.069Z,99111.09
2023-05-14T13:26:22.586Z,99108.22
2023-05-14T13:29:24.792Z,99106.09
2023-05-14T13:32:27.031Z,99092.69
2023-05-14T13:35:29.417Z,99097.34
2023-05-14T13:38:31.721Z,99089.72
2023-05-14T13:41:37.970Z,99089.78
2023-05-14T13:44:40.247Z,99081.13
2023-05-14T13:47:42.709Z,99080.88
2023-05-14T13:50:44.950Z,99074.62
2023-05-14T13:53:47.136Z,99072.63
2023-05-14T13:56:49.269Z,99073.22
2023-05-14T13:59:51.472Z,99065.59
2023-05-14T14:02:53.869Z,99059.00
2023-05-14T14:05:56.133Z,99063.97
2023-05-14T14:08:58.393Z,99058.34
2023-05-14T14:12:04.707Z,99045.94
2023-05-14T14:15:07.682Z,99056.97
2023-05-14T14:18:09.958Z,99053.22
2023-05-14T14:21:12.144Z,99039.22
2023-05-14T14:24:14.331Z,99038.78
2023-05-14T14:27:16.485Z,99031.88
2023-05-14T14:30:19.243Z,99038.84
2023-05-14T14:33:21.437Z,99039.44
2023-05-14T14:36:23.734Z,99037.00
2023-05-14T14:39:26.546Z,99040.41
2023-05-14T14:42:28.749Z,99030.63
2023-05-14T14:45:31.113Z,99025.81
2023-05-14T14:48:37.549Z,99029.44
2023-05-14T14:51:39.746Z,99028.19
2023-05-14T14:54:41.986Z,99034.19
2023-05-14T14:57:44.231Z,99022.94
2023-05-14T15:00:47.160Z,99031.44
2023-05-14T15:03:49.596Z,99025.44
2023-05-14T15:06:51.824Z,99030.84
2023-05-14T15:09:55.532Z,99019.59
2023-05-14T15:12:59.122Z,99002.37
2023-05-14T15:16:01.346Z,98989.13
2023-05-14T15:19:03.710Z,98975.38
2023-05-14T15:22:06.021Z,98974.03
2023-05-14T15:25:09.005Z,98977.53
2023-05-14T15:28:11.288Z,98967.94
2023-05-14T15:31:13.541Z,98965.28
2023-05-14T15:34:15.810Z,98967.53
2023-05-14T15:37:17.997Z,98967.13
2023-05-14T15:40:20.291Z,98974.13
2023-05-14T15:43:22.560Z,98972.47
2023-05-14T15:46:25.022Z,98968.78
2023-05-14T15:49:27.608Z,98970.00
2023-05-14T15:52:30.123Z,98961.06
2023-05-14T15:55:32.313Z,98960.69
2023-05-14T15:58:34.519Z,98966.81
2023-05-14T16:01:36.714Z,98955.59
2023-05-14T16:04:39.332Z,98958.31
2023-05-14T16:07:42.385Z,98937.34
2023-05-14T16:10:44.547Z,98942.06
2023-05-14T16:13:46.825Z,98926.31
2023-05-14T16:16:49.592Z,98919.37
2023-05-14T16:19:53.466Z,98909.16
2023-05-14T16:22:58.280Z,98899.12
2023-05-14T16:26:00.546Z,98905.31
2023-05-14T16:29:02.766Z,98904.66
2023-05-14T16:32:05.381Z,98907.47
2023-05-14T16:35:08.022Z,98914.78
2023-05-14T16:38:10.292Z,98913.75
2023-05-14T16:41:12.480Z,98918.28
2023-05-14T16:44:14.672Z,98920.94
2023-05-14T16:47:16.922Z,98924.84
2023-05-14T16:50:19.398Z,98914.34
2023-05-14T16:53:21.599Z,98912.28
2023-05-14T16:56:24.000Z,98899.75
2023-05-14T16:59:26.159Z,98893.06
2023-05-14T17:02:28.340Z,98880.06
2023-05-14T17:05:30.716Z,98878.13
2023-05-14T17:08:35.555Z,98880.56
2023-05-14T17:11:37.874Z,98875.09
2023-05-14T17:14:40.105Z,98867.50
2023-05-14T17:17:42.287Z,98881.25
2023-05-14T17:20:44.443Z,98869.34
2023-05-14T17:23:46.660Z,98869.62
2023-05-14T17:26:48.958Z,98859.06
2023-05-14T17:29:51.262Z,98850.19
2023-05-14T17:32:53.679Z,98839.34
2023-05-14T17:35:56.148Z,98866.25
2023-05-14T17:38:58.356Z,98849.59
2023-05-14T17:42:00.690Z,98857.22
2023-05-14T17:45:03.080Z,98837.56
2023-05-14T17:48:05.795Z,98827.06
2023-05-14T17:51:08.066Z,98822.41
2023-05-14T17:54:10.400Z,98825.44
2023-05-14T17:57:12.606Z,98829.28
2023-05-14T18:00:15.034Z,98829.13
2023-05-14T18:03:17.569Z,98818.50
2023-05-14T18:06:19.865Z,98815.56
2023-05-14T18:09:22.053Z,98809.94
2023-05-14T18:12:27.512Z,98804.75
2023-05-14T18:15:31.582Z,98812.28
2023-05-14T18:18:33.940Z,98809.31
2023-05-14T18:21:36.159Z,98813.31
2023-05-14T18:24:38.540Z,98800.25
2023-05-14T18:27:44.456Z,98792.25
2023-05-14T18:30:46.858Z,98798.69
2023-05-14T18:33:49.324Z,98801.34
2023-05-14T18:36:51.534Z,98796.03
2023-05-14T18:39:53.935Z,98806.59
2023-05-14T18:42:56.797Z,98807.41
2023-05-14T18:45:59.253Z,98796.31
2023-05-14T18:49:01.486Z,98797.37
2023-05-14T18:52:03.780Z,98788.13
2023-05-14T18:55:06.382Z,98800.47
2023-05-14T18:58:08.652Z,98805.34
2023-05-14T19:01:10.921Z,98805.03
2023-05-14T19:04:13.685Z,98802.59
2023-05-14T19:07:15.964Z,98813.91
2023-05-14T19:10:18.210Z,98807.34
2023-05-14T19:13:20.497Z,98806.28
2023-05-14T19:16:23.132Z,98797.72
2023-05-14T19:19:25.478Z,98793.22
2023-05-14T19:22:28.072Z,98796.47
2023-05-14T19:25:30.644Z,98788.94
2023-05-14T19:28:33.614Z,98774.72
2023-05-14T19:31:35.938Z,98772.59
2023-05-14T19:34:38.228Z,98771.78
2023-05-14T19:37:40.608Z,98770.44
2023-05-14T19:40:44.402Z,98777.56
2023-05-14T19:43:47.225Z,98757.31
2023-05-14T19:46:49.743Z,98758.47
2023-05-14T19:49:57.270Z,98759.97
2023-05-14T19:53:00.245Z,98765.28
2023-05-14T19:56:03.585Z,98764.91
2023-05-14T19:59:05.932Z,98747.69
2023-05-14T20:02:09.235Z,98739.03
2023-05-14T20:05:12.149Z,98752.34
2023-05-14T20:08:14.472Z,98751.91
2023-05-14T20:11:19.515Z,98751.09
2023-05-14T20:14:22.051Z,98743.09
2023-05-14T20:17:24.929Z,98749.69
2023-05-14T20:20:29.491Z,98745.75
2023-05-14T20:23:33.672Z,98729.78
2023-05-14T20:26:35.998Z,98725.28
2023-05-14T20:29:38.166Z,98740.34
2023-05-14T20:32:40.513Z,98745.41
2023-05-14T20:35:44.113Z,98737.41
2023-05-14T20:38:47.413Z,98742.06
2023-05-14T20:41:49.595Z,98735.13
2023-05-14T20:44:52.880Z,98730.47
2023-05-14T20:47:55.201Z,98725.97
2023-05-14T20:50:57.554Z,98730.69
2023-05-14T20:53:59.730Z,98731.88
2023-05-14T20:57:01.908Z,98724.91
2023-05-14T21:00:08.113Z,98737.88
2023-05-14T21:03:10.441Z,98740.31
2023-05-14T21:06:12.671Z,98733.72
2023-05-14T21:09:14.907Z,98720.09
2023-05-14T21:12:17.088Z,98708.84
2023-05-14T21:15:19.277Z,98697.41
2023-05-14T21:18:21.505Z,98702.84
2023-05-14T21:21:23.733Z,98703.56
2023-05-14T21:24:25.959Z,98702.84
2023-05-14T21:27:28.186Z,98707.38
2023-05-14T21:30:30.694Z,98700.09
2023-05-14T21:33:33.037Z,98687.69
2023-05-14T21:36:35.704Z,98704.03
2023-05-14T21:39:37.956Z,98690.00
2023-05-14T21:42:40.777Z,98685.50
2023-05-14T21:45:43.854Z,98681.56
2023-05-14T21:48:46.198Z,98680.13
2023-05-14T21:51:53.064Z,98668.94
2023-05-14T21:54:55.333Z,98662.69
2023-05-14T21:57:57.623Z,98653.78
2023-05-14T22:00:59.841Z,98644.41
2023-05-14T22:04:02.118Z,98635.47
2023-05-14T22:07:04.619Z,98630.78
2023-05-14T22:10:07.424Z,98623.88
2023-05-14T22:13:09.826Z,98620.78
2023-05-14T22:16:13.747Z,98633.44
2023-05-14T22:19:16.802Z,98620.31
2023-05-14T22:22:19.189Z,98612.25
2023-05-14T22:25:21.364Z,98633.84
2023-05-14T22:28:23.674Z,98633.50
2023-05-14T22:31:25.885Z,98634.56
2023-05-14T22:34:28.085Z,98626.34
2023-05-14T22:37:30.352Z,98628.31
2023-05-14T22:40:32.580Z,98637.34
2023-05-14T22:43:34.768Z,98629.25
2023-05-14T22:46:37.024Z,98629.81
2023-05-14T22:49:40.596Z,98631.81
2023-05-14T22:52:42.774Z,98630.06
2023-05-14T22:55:45.025Z,98620.34
2023-05-14T22:58:47.789Z,98612.94
2023-05-14T23:01:50.030Z,98613.37
2023-05-14T23:04:52.585Z,98607.47
2023-05-14T23:07:55.481Z,98610.75
2023-05-14T23:10:57.639Z,98616.97
2023-05-14T23:13:59.822Z,98608.53
2023-05-14T23:17:02.004Z,98616.84
2023-05-14T23:20:06.001Z,98607.38
2023-05-14T23:23:08.394Z,98602.84
2023-05-14T23:26:10.623Z,98612.94
2023-05-14T23:29:12.802Z,98602.53
2023-05-14T23:32:15.107Z,98598.47
2023-05-14T23:35:17.359Z,98594.31
2023-05-14T23:38:19.695Z,98582.38
2023-05-14T23:41:22.552Z,98579.12
2023-05-14T23:44:24.794Z,98571.03
2023-05-14T23:47:27.015Z,98565.47
2023-05-14T23:50:29.284Z,98562.59
2023-05-14T23:53:31.510Z,98569.44
2023-05-14T23:56:34.353Z,98567.69
2023-05-14T23:59:36.570Z,98562.66
